Time;durP1;ratioP1;P1;durP2;ratioP2;P2;SDS_P1;SDS_P2;PMS_P1;PMS_P2;Temp;Humidity;BMP_temperature;BMP_pressure;BME280_temperature;BME280_humidity;BME280_pressure;Samples;Min_cycle;Max_cycle;Signal;HPM_P1;HPM_P2
2022/09/06 00:01:59;;;;;;;12.10;9.10;;;20.40;97.20;;;;;;5071890;28;20178;-66
2022/09/06 00:04:25;;;;;;;15.73;8.68;;;20.40;97.30;;;;;;5069043;28;20036;-66
2022/09/06 00:06:51;;;;;;;9.98;8.63;;;20.30;97.40;;;;;;5082047;28;20137;-66
2022/09/06 00:09:16;;;;;;;13.40;9.27;;;20.30;97.40;;;;;;5078332;28;20033;-66
2022/09/06 00:11:42;;;;;;;11.35;9.18;;;20.30;97.40;;;;;;5084337;22;20038;-66
2022/09/06 00:14:07;;;;;;;12.30;8.90;;;20.30;97.50;;;;;;5081664;28;20047;-66
2022/09/06 00:16:34;;;;;;;10.60;9.48;;;20.20;97.60;;;;;;5075674;28;20075;-66
2022/09/06 00:19:00;;;;;;;16.08;9.23;;;20.20;97.70;;;;;;5079161;28;20068;-66
2022/09/06 00:21:30;;;;;;;16.52;10.10;;;20.10;97.70;;;;;;5072089;28;20089;-66
2022/09/06 00:23:55;;;;;;;11.82;8.65;;;20.10;98.00;;;;;;5072162;28;20051;-66
2022/09/06 00:26:22;;;;;;;11.38;9.10;;;19.70;98.50;;;;;;5072195;28;20455;-66
2022/09/06 00:28:48;;;;;;;13.25;8.70;;;19.60;98.90;;;;;;5073615;28;20036;-66
2022/09/06 00:31:21;;;;;;;10.73;9.10;;;19.50;99.00;;;;;;5082870;28;20086;-66
2022/09/06 00:33:47;;;;;;;10.90;9.80;;;19.50;99.00;;;;;;5071636;28;20054;-66
2022/09/06 00:36:13;;;;;;;14.00;10.13;;;19.50;99.00;;;;;;5072138;28;20089;-66
2022/09/06 00:38:39;;;;;;;13.82;9.60;;;19.50;99.10;;;;;;5077218;28;20032;-66
2022/09/06 00:41:07;;;;;;;12.38;9.43;;;19.60;99.00;;;;;;5071264;28;20290;-66
2022/09/06 00:43:32;;;;;;;13.18;9.85;;;19.50;99.20;;;;;;5071665;28;20041;-66
2022/09/06 00:46:00;;;;;;;13.38;9.60;;;19.30;99.30;;;;;;5071701;28;20063;-66
2022/09/06 00:48:25;;;;;;;12.18;10.27;;;19.10;99.60;;;;;;5073541;28;20040;-66
2022/09/06 00:50:57;;;;;;;11.73;9.60;;;19.10;99.80;;;;;;5072239;28;20119;-66
2022/09/06 00:53:23;;;;;;;12.13;9.60;;;19.10;99.90;;;;;;5071922;28;20093;-66
2022/09/06 00:55:49;;;;;;;11.80;9.65;;;19.10;99.90;;;;;;5077562;28;20130;-66
2022/09/06 00:58:15;;;;;;;15.43;10.40;;;19.00;99.90;;;;;;5074878;28;20124;-66
2022/09/06 01:00:41;;;;;;;16.65;9.63;;;18.90;99.90;;;;;;5071326;28;20105;-66
2022/09/06 01:03:08;;;;;;;12.60;9.98;;;19.00;99.90;;;;;;5071215;28;20032;-66
2022/09/06 01:05:50;;;;;;;12.57;9.82;;;19.00;99.90;;;;;;5074064;28;20047;-66
2022/09/06 01:08:41;;;;;;;13.70;9.15;;;19.00;99.90;;;;;;5071049;28;20129;-66
2022/09/06 01:11:40;;;;;;;12.07;10.00;;;19.00;99.90;;;;;;5071598;28;20098;-66
2022/09/06 01:14:20;;;;;;;11.27;9.93;;;18.90;99.90;;;;;;5066915;28;20052;-66
2022/09/06 01:16:46;;;;;;;13.35;9.82;;;18.80;99.90;;;;;;5071177;28;20048;-66
2022/09/06 01:19:36;;;;;;;12.43;10.35;;;18.70;99.90;;;;;;5070756;28;20044;-66
2022/09/06 01:22:32;;;;;;;10.40;9.30;;;18.80;99.90;;;;;;5074729;28;20033;-66
2022/09/06 01:25:19;;;;;;;12.45;9.40;;;18.80;99.90;;;;;;5070680;28;20051;-66
2022/09/06 01:28:15;;;;;;;10.82;9.70;;;18.70;99.90;;;;;;5082032;28;20042;-66
2022/09/06 01:30:50;;;;;;;14.93;10.18;;;18.70;99.90;;;;;;5069408;28;20450;-66
2022/09/06 01:33:21;;;;;;;12.63;9.90;;;18.70;99.90;;;;;;5070685;28;20038;-66
2022/09/06 01:35:59;;;;;;;15.60;10.40;;;18.80;99.90;;;;;;5070021;28;20043;-66
2022/09/06 01:38:24;;;;;;;17.58;10.50;;;18.90;99.90;;;;;;5076337;28;20119;-66
2022/09/06 01:40:50;;;;;;;12.95;10.25;;;19.00;99.90;;;;;;5071724;28;20195;-66
2022/09/06 01:43:36;;;;;;;12.27;10.32;;;19.00;99.90;;;;;;5070771;28;20037;-66
2022/09/06 01:46:14;;;;;;;11.43;10.23;;;19.00;99.90;;;;;;5072970;28;20028;-66
2022/09/06 01:49:01;;;;;;;15.82;10.55;;;19.00;99.90;;;;;;5073165;28;20044;-66
2022/09/06 01:52:01;;;;;;;13.75;10.20;;;18.90;99.90;;;;;;5070429;28;20170;-66
2022/09/06 01:54:41;;;;;;;16.25;10.23;;;18.90;99.90;;;;;;5075886;28;20047;-66
2022/09/06 01:57:12;;;;;;;13.00;10.70;;;18.90;99.90;;;;;;5070550;28;20068;-66
2022/09/06 01:59:37;;;;;;;;;;;18.90;99.90;;;;;;5070960;28;20083;-66
2022/09/06 02:02:06;;;;;;;14.80;10.10;;;18.80;99.90;;;;;;5069167;28;19917;-66
2022/09/06 02:04:56;;;;;;;16.67;10.25;;;18.80;99.90;;;;;;5071918;28;20032;-66
2022/09/06 02:07:24;;;;;;;20.10;10.43;;;18.80;99.90;;;;;;5052668;28;20036;-66
2022/09/06 02:09:56;;;;;;;11.13;10.02;;;18.80;99.90;;;;;;5069668;28;20060;-66
2022/09/06 02:12:24;;;;;;;11.38;9.88;;;18.80;99.90;;;;;;5069634;28;20051;-66
2022/09/06 02:15:04;;;;;;;11.20;10.07;;;18.80;99.90;;;;;;5070193;28;20041;-66
2022/09/06 02:17:34;;;;;;;13.37;10.80;;;18.70;99.90;;;;;;5070532;28;20521;-66
2022/09/06 02:20:04;;;;;;;12.98;10.60;;;18.70;99.90;;;;;;5074146;28;20298;-66
2022/09/06 02:22:35;;;;;;;15.35;11.13;;;18.70;99.90;;;;;;5069765;28;20036;-66
2022/09/06 02:25:02;;;;;;;14.50;10.98;;;18.70;99.90;;;;;;5070659;28;20072;-66
2022/09/06 02:27:28;;;;;;;14.95;10.75;;;18.70;99.90;;;;;;5078524;28;20097;-66
2022/09/06 02:29:53;;;;;;;12.82;10.45;;;18.70;99.90;;;;;;5069308;28;20045;-65
2022/09/06 02:32:22;;;;;;;11.45;10.25;;;18.60;99.90;;;;;;5069615;28;20051;-66
2022/09/06 02:34:53;;;;;;;11.90;10.70;;;18.60;99.90;;;;;;5050752;28;20070;-66
2022/09/06 02:37:21;;;;;;;11.73;10.25;;;18.60;99.90;;;;;;5069485;28;20051;-66
2022/09/06 02:39:47;;;;;;;14.80;10.73;;;18.60;99.90;;;;;;5051968;28;20086;-66
2022/09/06 02:42:16;;;;;;;16.15;10.63;;;18.60;99.90;;;;;;5070219;28;20036;-66
2022/09/06 02:44:42;;;;;;;12.70;10.98;;;18.60;99.90;;;;;;5077376;28;20047;-66
2022/09/06 02:47:08;;;;;;;14.52;11.07;;;18.60;99.90;;;;;;5074007;28;20043;-66
2022/09/06 02:49:34;;;;;;;15.57;11.55;;;18.60;99.90;;;;;;5073888;28;20036;-66
2022/09/06 02:52:00;;;;;;;11.82;10.38;;;18.70;99.90;;;;;;5073605;28;20702;-66
2022/09/06 02:54:25;;;;;;;14.68;11.07;;;18.70;99.90;;;;;;5073596;28;20039;-66
2022/09/06 02:56:51;;;;;;;15.32;11.43;;;18.80;99.90;;;;;;5073655;28;20036;-66
2022/09/06 02:59:16;;;;;;;14.43;11.30;;;18.80;99.90;;;;;;5073608;28;20040;-66
2022/09/06 03:01:42;;;;;;;12.25;10.95;;;19.00;99.90;;;;;;5072829;28;20032;-66
2022/09/06 03:04:08;;;;;;;12.60;11.23;;;19.00;99.90;;;;;;5078664;28;20094;-66
2022/09/06 03:06:34;;;;;;;14.60;11.70;;;19.00;99.90;;;;;;5073647;28;20039;-66
2022/09/06 03:08:59;;;;;;;12.50;10.55;;;19.10;99.90;;;;;;5074121;28;20040;-66
2022/09/06 03:11:26;;;;;;;12.43;11.18;;;19.00;99.90;;;;;;5077368;28;20440;-66
2022/09/06 03:13:51;;;;;;;13.35;11.60;;;19.00;99.90;;;;;;5073321;28;20043;-66
2022/09/06 03:16:18;;;;;;;13.57;11.40;;;19.00;99.90;;;;;;5054098;28;20040;-66
2022/09/06 03:18:44;;;;;;;12.68;11.38;;;19.10;99.90;;;;;;5072902;28;20490;-66
2022/09/06 03:21:10;;;;;;;12.65;11.35;;;19.10;99.90;;;;;;5072902;28;20028;-66
2022/09/06 03:23:38;;;;;;;13.35;11.68;;;19.10;99.90;;;;;;5073578;28;20032;-66
2022/09/06 03:26:05;;;;;;;13.27;11.38;;;19.10;99.90;;;;;;5075652;28;20034;-66
2022/09/06 03:28:31;;;;;;;13.57;11.07;;;19.10;99.90;;;;;;5073983;28;20033;-66
2022/09/06 03:30:57;;;;;;;12.52;10.90;;;19.10;99.90;;;;;;5072880;28;20075;-66
2022/09/06 03:33:23;;;;;;;13.77;11.07;;;19.10;99.90;;;;;;5073345;28;20040;-66
2022/09/06 03:35:57;;;;;;;13.07;11.07;;;19.10;99.90;;;;;;5076988;28;20613;-65
2022/09/06 03:38:24;;;;;;;12.95;11.60;;;19.00;99.90;;;;;;5072679;28;20045;-66
2022/09/06 03:40:51;;;;;;;13.50;11.60;;;19.00;99.90;;;;;;5072465;28;20037;-66
2022/09/06 03:43:18;;;;;;;13.15;11.40;;;19.00;99.90;;;;;;5072793;28;20035;-66
2022/09/06 03:45:45;;;;;;;18.10;12.38;;;19.00;99.90;;;;;;5080505;28;20479;-66
2022/09/06 03:48:11;;;;;;;13.88;11.82;;;19.00;99.90;;;;;;5072979;28;20117;-66
2022/09/06 03:50:37;;;;;;;14.75;12.48;;;18.90;99.90;;;;;;5070980;28;20090;-66
2022/09/06 03:53:02;;;;;;;13.70;12.07;;;18.90;99.90;;;;;;5079802;28;20482;-66
2022/09/06 03:55:28;;;;;;;15.40;12.48;;;18.90;99.90;;;;;;5076471;28;20493;-66
2022/09/06 03:57:53;;;;;;;14.70;12.48;;;18.90;99.90;;;;;;5072994;28;20028;-66
2022/09/06 04:00:19;;;;;;;14.57;13.10;;;18.90;99.90;;;;;;5070083;28;20045;-66
2022/09/06 04:02:45;;;;;;;16.63;13.48;;;18.90;99.90;;;;;;5053906;28;20083;-66
2022/09/06 04:05:12;;;;;;;15.45;13.50;;;19.00;99.90;;;;;;5072898;28;20040;-66
2022/09/06 04:07:37;;;;;;;14.35;12.88;;;18.90;99.90;;;;;;5076819;28;20071;-66
2022/09/06 04:10:03;;;;;;;18.55;13.38;;;18.90;99.90;;;;;;5075531;28;20064;-66
2022/09/06 04:12:29;;;;;;;16.02;13.60;;;18.90;99.90;;;;;;5071906;28;20051;-65
2022/09/06 04:14:55;;;;;;;14.93;12.98;;;18.90;99.90;;;;;;5072182;28;20044;-66
2022/09/06 04:17:20;;;;;;;14.93;13.32;;;18.90;99.90;;;;;;5071321;28;20037;-66
2022/09/06 04:19:46;;;;;;;16.05;13.82;;;18.90;99.90;;;;;;5071798;28;20037;-66
2022/09/06 04:22:12;;;;;;;16.30;13.45;;;18.80;99.90;;;;;;5071501;28;20044;-66
2022/09/06 04:24:37;;;;;;;15.05;13.35;;;18.80;99.90;;;;;;5074041;28;20044;-66
2022/09/06 04:27:03;;;;;;;15.35;13.43;;;18.80;99.90;;;;;;5072977;28;20043;-66
2022/09/06 04:29:28;;;;;;;14.38;12.88;;;18.80;99.90;;;;;;5072023;28;20033;-66
2022/09/06 04:31:54;;;;;;;17.30;13.15;;;18.70;99.90;;;;;;5070708;28;20066;-66
2022/09/06 04:34:20;;;;;;;21.20;13.73;;;18.70;99.90;;;;;;5083470;28;20410;-66
2022/09/06 04:36:45;;;;;;;17.73;12.98;;;18.70;99.90;;;;;;5072372;28;20080;-66
2022/09/06 04:39:11;;;;;;;15.75;13.70;;;18.60;99.90;;;;;;5077365;28;20398;-66
2022/09/06 04:41:36;;;;;;;22.27;13.13;;;18.60;99.90;;;;;;5071426;28;20490;-66
2022/09/06 04:44:02;;;;;;;16.15;12.82;;;18.60;99.90;;;;;;5073316;28;20037;-66
2022/09/06 04:46:29;;;;;;;14.73;13.23;;;18.60;99.90;;;;;;5074656;28;20048;-65
2022/09/06 04:48:56;;;;;;;16.40;13.90;;;18.70;99.90;;;;;;5052486;28;20043;-67
2022/09/06 04:51:23;;;;;;;16.33;14.07;;;18.70;99.90;;;;;;5074697;28;20051;-67
2022/09/06 04:53:48;;;;;;;15.90;14.27;;;18.60;99.90;;;;;;5071296;28;20380;-67
2022/09/06 04:56:17;;;;;;;16.20;14.50;;;18.60;99.90;;;;;;5071977;28;20082;-66
2022/09/06 04:58:44;;;;;;;16.35;14.65;;;18.60;99.90;;;;;;5069566;28;20054;-68
2022/09/06 05:01:10;;;;;;;19.50;15.32;;;18.60;99.90;;;;;;5071284;28;20058;-68
2022/09/06 05:03:36;;;;;;;20.00;14.32;;;18.60;99.90;;;;;;5050343;28;20414;-67
2022/09/06 05:06:10;;;;;;;16.88;14.70;;;18.50;99.90;;;;;;5068393;28;20623;-68
2022/09/06 05:08:37;;;;;;;15.27;13.70;;;18.50;99.90;;;;;;5050367;28;20117;-69
2022/09/06 05:11:04;;;;;;;15.93;14.07;;;18.40;99.90;;;;;;5050481;28;20123;-66
2022/09/06 05:13:29;;;;;;;16.85;13.82;;;18.40;99.90;;;;;;5067571;28;20402;-66
2022/09/06 05:15:58;;;;;;;18.63;14.13;;;18.40;99.90;;;;;;5071885;28;20494;-67
2022/09/06 05:18:24;;;;;;;17.25;14.80;;;18.50;99.90;;;;;;5067920;28;20532;-66
2022/09/06 05:20:53;;;;;;;16.27;14.32;;;18.40;99.90;;;;;;5067796;28;20036;-67
2022/09/06 05:23:19;;;;;;;25.25;15.27;;;18.30;99.90;;;;;;5066431;28;20032;-67
2022/09/06 05:25:45;;;;;;;16.27;14.60;;;18.30;99.90;;;;;;5077289;28;20048;-67
2022/09/06 05:28:11;;;;;;;17.63;15.07;;;18.30;99.90;;;;;;5071843;28;20036;-67
2022/09/06 05:30:36;;;;;;;17.30;15.35;;;18.30;99.90;;;;;;5071155;28;20034;-67
2022/09/06 05:33:02;;;;;;;17.55;15.63;;;18.30;99.90;;;;;;5072558;28;20040;-67
2022/09/06 05:35:27;;;;;;;17.80;15.55;;;18.30;99.90;;;;;;5070372;28;20396;-65
2022/09/06 05:37:53;;;;;;;17.67;15.68;;;18.30;99.90;;;;;;5068652;28;20712;-66
2022/09/06 05:40:19;;;;;;;18.08;14.75;;;18.30;99.90;;;;;;5068223;28;20098;-66
2022/09/06 05:42:44;;;;;;;19.15;15.60;;;18.40;99.90;;;;;;5066484;28;20078;-67
2022/09/06 05:45:10;;;;;;;25.42;15.80;;;18.40;99.90;;;;;;5065334;28;20047;-67
2022/09/06 05:47:37;;;;;;;18.30;14.88;;;18.40;99.90;;;;;;5055807;28;20047;-68
2022/09/06 05:50:03;;;;;;;19.73;14.93;;;18.40;99.90;;;;;;5049833;28;20044;-66
2022/09/06 05:52:29;;;;;;;21.27;14.75;;;18.40;99.90;;;;;;5067438;28;20048;-67
2022/09/06 05:54:54;;;;;;;16.73;15.00;;;18.40;99.90;;;;;;5048545;28;20418;-66
2022/09/06 05:57:20;;;;;;;18.55;15.55;;;18.40;99.90;;;;;;5076438;28;20047;-66
2022/09/06 05:59:46;;;;;;;18.70;15.70;;;18.40;99.90;;;;;;5075851;28;20036;-67
2022/09/06 06:02:11;;;;;;;20.73;15.90;;;18.40;99.90;;;;;;5074695;28;20039;-66
2022/09/06 06:04:37;;;;;;;18.55;16.15;;;18.40;99.90;;;;;;5069410;28;20111;-67
2022/09/06 06:07:02;;;;;;;19.48;16.05;;;18.40;99.90;;;;;;5069483;28;20035;-67
2022/09/06 06:09:28;;;;;;;21.33;15.77;;;18.40;99.90;;;;;;5085392;28;20152;-67
2022/09/06 06:11:54;;;;;;;19.05;15.40;;;18.40;99.90;;;;;;5098960;22;20046;-66
2022/09/06 06:14:19;;;;;;;19.13;16.23;;;18.40;99.90;;;;;;5106355;28;20040;-67
2022/09/06 06:16:45;;;;;;;21.60;16.40;;;18.50;99.90;;;;;;5092193;28;20490;-67
2022/09/06 06:19:11;;;;;;;18.90;16.73;;;18.60;99.90;;;;;;5104881;28;20626;-67
2022/09/06 06:21:37;;;;;;;20.75;16.35;;;18.70;99.90;;;;;;5072190;28;20044;-67
2022/09/06 06:24:04;;;;;;;18.73;15.63;;;18.80;99.90;;;;;;5070707;28;20059;-67
2022/09/06 06:26:33;;;;;;;19.25;15.95;;;18.90;99.90;;;;;;5069437;28;20033;-67
2022/09/06 06:29:00;;;;;;;18.58;16.33;;;19.00;99.90;;;;;;5076096;28;20512;-67
2022/09/06 06:31:31;;;;;;;19.02;16.23;;;19.10;99.90;;;;;;5068376;28;20490;-67
2022/09/06 06:33:57;;;;;;;18.23;16.42;;;19.10;99.90;;;;;;5071774;28;20498;-67
2022/09/06 06:36:29;;;;;;;17.38;15.23;;;19.20;99.90;;;;;;5069936;28;20032;-67
2022/09/06 06:38:56;;;;;;;18.70;15.70;;;19.20;99.90;;;;;;5052207;28;20048;-66
2022/09/06 06:41:24;;;;;;;18.50;15.82;;;19.30;99.90;;;;;;5067076;28;20122;-66
2022/09/06 06:43:53;;;;;;;22.48;16.23;;;19.30;99.90;;;;;;5063966;28;20083;-66
2022/09/06 06:46:20;;;;;;;19.25;16.67;;;19.30;99.90;;;;;;5083899;28;20051;-66
2022/09/06 06:48:46;;;;;;;18.75;16.17;;;19.30;99.90;;;;;;5068497;28;20041;-66
2022/09/06 06:51:18;;;;;;;18.15;16.20;;;19.30;99.90;;;;;;5068796;28;20041;-67
2022/09/06 06:53:46;;;;;;;20.38;16.88;;;19.30;99.90;;;;;;5069400;28;20052;-66
2022/09/06 06:56:16;;;;;;;20.70;15.68;;;19.30;99.90;;;;;;5069805;28;20048;-65
2022/09/06 06:58:43;;;;;;;20.05;15.85;;;19.40;99.90;;;;;;5066771;28;20029;-65
2022/09/06 07:01:09;;;;;;;19.92;15.95;;;19.40;99.90;;;;;;5077005;28;20414;-65
2022/09/06 07:03:35;;;;;;;18.65;16.75;;;19.50;99.90;;;;;;5051510;28;20491;-65
2022/09/06 07:06:02;;;;;;;17.92;16.10;;;19.50;99.90;;;;;;5074347;28;20105;-64
2022/09/06 07:08:28;;;;;;;17.75;16.00;;;19.50;99.90;;;;;;5080584;28;20502;-65
2022/09/06 07:10:53;;;;;;;17.95;16.15;;;19.60;99.90;;;;;;5067790;28;20033;-64
2022/09/06 07:13:19;;;;;;;19.10;17.10;;;19.50;99.90;;;;;;5071738;28;20418;-65
2022/09/06 07:15:44;;;;;;;20.60;17.80;;;19.60;99.90;;;;;;5069751;28;20036;-66
2022/09/06 07:18:10;;;;;;;21.25;18.98;;;19.60;99.90;;;;;;5069515;28;20051;-65
2022/09/06 07:20:36;;;;;;;22.60;18.40;;;19.60;99.90;;;;;;5067623;28;20037;-64
2022/09/06 07:23:04;;;;;;;20.17;18.00;;;19.60;99.90;;;;;;5072296;28;20097;-65
2022/09/06 07:25:31;;;;;;;21.92;17.95;;;19.60;99.90;;;;;;5070274;28;20490;-65
2022/09/06 07:28:00;;;;;;;21.83;18.42;;;19.60;99.90;;;;;;5063201;28;20347;-65
2022/09/06 07:30:26;;;;;;;22.88;18.88;;;19.50;99.90;;;;;;5091215;28;20047;-65
2022/09/06 07:32:52;;;;;;;20.70;18.50;;;19.50;99.90;;;;;;5080098;28;20032;-65
2022/09/06 07:35:19;;;;;;;20.80;18.58;;;19.40;99.90;;;;;;5078579;28;20028;-65
2022/09/06 07:37:58;;;;;;;21.27;18.48;;;19.40;99.90;;;;;;5093580;28;20059;-65
2022/09/06 07:40:25;;;;;;;21.17;18.63;;;19.40;99.90;;;;;;5073710;28;20371;-65
2022/09/06 07:42:52;;;;;;;21.48;18.15;;;19.30;99.90;;;;;;5082936;28;20040;-65
2022/09/06 07:45:18;;;;;;;24.67;18.63;;;19.30;99.90;;;;;;5093118;28;20036;-65
2022/09/06 07:47:44;;;;;;;24.05;18.30;;;19.40;99.90;;;;;;5084371;28;20032;-65
2022/09/06 07:50:10;;;;;;;21.75;18.35;;;19.30;99.90;;;;;;5079197;28;20082;-65
2022/09/06 07:52:36;;;;;;;21.00;17.35;;;19.30;99.90;;;;;;5072082;28;20384;-65
2022/09/06 07:55:02;;;;;;;20.70;18.70;;;19.20;99.90;;;;;;5071489;28;20527;-65
2022/09/06 07:57:28;;;;;;;21.27;18.92;;;19.10;99.90;;;;;;5079126;28;20119;-65
2022/09/06 07:59:54;;;;;;;22.42;19.23;;;19.10;99.90;;;;;;5072452;28;20128;-67
2022/09/06 08:02:20;;;;;;;25.25;19.58;;;19.10;99.90;;;;;;5072181;28;20052;-67
2022/09/06 08:04:45;;;;;;;20.90;18.65;;;19.20;99.90;;;;;;5072174;28;20397;-67
2022/09/06 08:07:11;;;;;;;20.95;18.80;;;19.20;99.90;;;;;;5072314;28;20040;-67
2022/09/06 08:09:37;;;;;;;22.48;19.60;;;19.40;99.90;;;;;;5072010;28;20043;-67
2022/09/06 08:12:06;;;;;;;23.20;19.08;;;19.40;99.90;;;;;;5073224;28;20028;-67
2022/09/06 08:14:35;;;;;;;21.02;18.70;;;19.60;99.90;;;;;;5085372;28;20043;-67
2022/09/06 08:17:01;;;;;;;21.25;19.05;;;19.60;99.90;;;;;;5079604;28;20040;-67
2022/09/06 08:19:27;;;;;;;25.60;19.33;;;19.70;99.90;;;;;;5072174;28;20048;-67
2022/09/06 08:21:55;;;;;;;21.17;18.98;;;19.80;99.90;;;;;;5077237;28;20431;-67
2022/09/06 08:24:22;;;;;;;22.98;19.58;;;19.90;99.90;;;;;;5085202;28;20312;-67
2022/09/06 08:26:47;;;;;;;29.90;19.60;;;20.00;99.90;;;;;;5074818;28;20111;-67
2022/09/06 08:29:13;;;;;;;24.25;20.48;;;20.30;99.90;;;;;;5092641;28;20127;-67
2022/09/06 08:31:43;;;;;;;21.70;19.40;;;20.50;99.90;;;;;;5076074;28;20059;-67
2022/09/06 08:34:11;;;;;;;22.45;20.02;;;20.60;99.90;;;;;;5085169;28;20039;-67
2022/09/06 08:36:37;;;;;;;22.80;19.77;;;20.80;99.90;;;;;;5091664;28;20051;-67
2022/09/06 08:39:05;;;;;;;23.05;20.73;;;21.00;99.90;;;;;;5077366;28;20430;-67
2022/09/06 08:41:54;;;;;;;23.83;18.65;;;21.10;99.90;;;;;;5075039;28;20348;-67
2022/09/06 08:44:22;;;;;;;18.80;16.80;;;21.20;99.90;;;;;;5077597;28;20169;-67
2022/09/06 08:46:52;;;;;;;19.83;17.13;;;21.40;99.90;;;;;;5074400;28;20075;-67
2022/09/06 08:49:18;;;;;;;19.48;17.40;;;21.50;99.90;;;;;;5062199;28;20052;-67
2022/09/06 08:51:58;;;;;;;22.75;18.35;;;21.60;99.90;;;;;;5070824;28;20043;-67
2022/09/06 08:54:43;;;;;;;21.42;17.23;;;21.70;99.90;;;;;;5071490;28;20048;-67
2022/09/06 08:57:35;;;;;;;19.83;17.40;;;21.80;99.90;;;;;;5080011;28;20040;-67
2022/09/06 09:00:07;;;;;;;21.95;17.38;;;21.90;99.90;;;;;;5070749;28;20036;-67
2022/09/06 09:02:42;;;;;;;18.80;16.77;;;22.10;99.90;;;;;;5070087;28;20496;-68
2022/09/06 09:05:19;;;;;;;18.30;16.40;;;22.20;99.90;;;;;;5078327;28;20036;-67
2022/09/06 09:08:23;;;;;;;19.67;16.30;;;22.30;99.90;;;;;;5073074;28;20055;-67
2022/09/06 09:10:59;;;;;;;18.63;15.82;;;22.40;99.90;;;;;;5053449;28;20414;-68
2022/09/06 09:13:37;;;;;;;20.00;16.70;;;22.60;99.90;;;;;;5076821;28;20046;-68
2022/09/06 09:16:04;;;;;;;20.27;16.50;;;22.70;99.90;;;;;;5074010;28;20040;-68
2022/09/06 09:18:34;;;;;;;20.27;18.08;;;22.70;99.90;;;;;;5079007;28;20097;-67
2022/09/06 09:21:00;;;;;;;18.27;16.38;;;22.80;99.90;;;;;;5080779;28;20497;-67
2022/09/06 09:23:28;;;;;;;18.10;15.90;;;23.00;99.90;;;;;;5082481;28;20032;-68
2022/09/06 09:25:58;;;;;;;19.55;14.00;;;23.10;99.90;;;;;;5085760;28;20038;-68
2022/09/06 09:28:24;;;;;;;16.50;13.68;;;23.20;99.90;;;;;;5080410;28;20039;-68
2022/09/06 09:30:53;;;;;;;14.35;12.85;;;23.30;99.90;;;;;;5079373;28;20040;-67
2022/09/06 09:33:34;;;;;;;15.90;12.70;;;23.40;99.90;;;;;;5074409;28;20036;-68
2022/09/06 09:36:12;;;;;;;15.85;12.60;;;23.40;99.90;;;;;;5064629;28;20047;-68
2022/09/06 09:38:48;;;;;;;17.85;13.48;;;23.50;99.90;;;;;;5081634;28;20112;-68
2022/09/06 09:41:33;;;;;;;15.80;12.70;;;23.60;99.90;;;;;;5070053;28;20075;-68
2022/09/06 09:44:09;;;;;;;15.05;13.55;;;23.70;99.90;;;;;;5079413;28;20032;-68
2022/09/06 09:46:38;;;;;;;14.05;12.55;;;23.70;99.90;;;;;;5081124;28;20032;-68
2022/09/06 09:49:09;;;;;;;15.60;12.82;;;23.80;99.90;;;;;;5078150;28;20068;-66
2022/09/06 09:52:02;;;;;;;14.65;13.10;;;24.00;99.90;;;;;;5079396;28;20502;-66
2022/09/06 09:54:35;;;;;;;15.70;13.80;;;24.00;99.90;;;;;;5076294;28;20066;-66
2022/09/06 09:57:05;;;;;;;17.90;13.68;;;24.10;99.90;;;;;;5069808;28;20028;-66
2022/09/06 09:59:42;;;;;;;13.32;11.63;;;24.10;99.90;;;;;;5085589;28;20036;-66
2022/09/06 10:02:30;;;;;;;13.30;11.95;;;24.30;99.90;;;;;;5083695;28;20068;-66
2022/09/06 10:05:05;;;;;;;12.00;10.73;;;24.40;99.90;;;;;;5064589;28;20048;-66
2022/09/06 10:07:32;;;;;;;13.88;11.95;;;24.50;99.90;;;;;;5069708;28;20043;-66
2022/09/06 10:10:04;;;;;;;14.80;12.20;;;24.50;99.90;;;;;;5067874;28;20032;-66
2022/09/06 10:12:33;;;;;;;13.45;11.95;;;24.50;99.90;;;;;;5071205;28;20170;-66
2022/09/06 10:14:59;;;;;;;14.60;11.55;;;24.60;99.90;;;;;;5070401;28;20036;-66
2022/09/06 10:17:32;;;;;;;16.58;12.07;;;24.70;99.90;;;;;;5070504;28;20041;-66
2022/09/06 10:20:11;;;;;;;16.48;12.68;;;24.80;99.90;;;;;;5072103;28;20033;-66
2022/09/06 10:23:09;;;;;;;14.45;11.55;;;24.90;99.60;;;;;;5072842;28;20044;-66
2022/09/06 10:26:06;;;;;;;13.75;10.63;;;25.00;99.70;;;;;;5070363;28;20086;-66
2022/09/06 10:28:40;;;;;;;13.07;10.77;;;25.10;99.90;;;;;;4991833;28;20450;-66
2022/09/06 10:31:46;;;;;;;13.15;11.85;;;25.10;99.10;;;;;;5051742;28;20036;-66
2022/09/06 10:34:32;;;;;;;14.20;10.93;;;25.20;98.60;;;;;;5070450;28;20040;-66
2022/09/06 10:37:42;;;;;;;11.20;9.60;;;25.30;97.90;;;;;;5074865;28;20055;-66
2022/09/06 10:40:10;;;;;;;13.80;10.57;;;25.30;97.30;;;;;;5039289;28;20079;-67
2022/09/06 10:42:51;;;;;;;13.85;10.00;;;25.30;98.10;;;;;;5069974;28;20044;-66
2022/09/06 10:45:55;;;;;;;12.02;10.38;;;25.40;98.00;;;;;;5071483;28;20379;-66
2022/09/06 10:48:31;;;;;;;9.82;8.80;;;25.60;97.50;;;;;;5065407;28;20060;-66
2022/09/06 10:51:06;;;;;;;11.48;10.27;;;25.60;97.70;;;;;;5076442;28;20036;-66
2022/09/06 10:53:59;;;;;;;12.35;9.38;;;25.90;97.50;;;;;;5062391;28;20509;-66
2022/09/06 10:56:42;;;;;;;10.68;8.77;;;26.00;96.10;;;;;;5079893;28;20040;-66
2022/09/06 10:59:29;;;;;;;12.35;10.25;;;26.10;96.30;;;;;;5076849;28;20028;-66
2022/09/06 11:02:13;;;;;;;11.82;9.90;;;26.10;95.60;;;;;;5080465;28;20075;-66
2022/09/06 11:04:42;;;;;;;9.73;8.82;;;26.20;95.80;;;;;;5065774;28;20047;-66
2022/09/06 11:07:36;;;;;;;13.90;10.20;;;26.30;96.20;;;;;;5065231;28;20028;-66
2022/09/06 11:10:23;;;;;;;12.05;8.25;;;26.30;96.00;;;;;;5085967;28;20033;-67
2022/09/06 11:13:04;;;;;;;13.13;8.65;;;26.50;95.80;;;;;;5083128;28;20041;-66
2022/09/06 11:15:42;;;;;;;9.48;8.32;;;26.50;94.80;;;;;;5079256;28;20065;-66
2022/09/06 11:18:35;;;;;;;9.55;8.65;;;26.60;95.00;;;;;;5085395;28;20081;-66
2022/09/06 11:21:19;;;;;;;10.38;8.13;;;26.70;94.70;;;;;;5041596;28;20152;-66
2022/09/06 11:24:11;;;;;;;9.07;8.10;;;26.70;94.00;;;;;;5081599;28;20037;-66
2022/09/06 11:26:57;;;;;;;10.88;8.20;;;26.80;94.50;;;;;;5074072;28;20048;-66
2022/09/06 11:29:26;;;;;;;10.10;8.80;;;26.90;94.20;;;;;;5088062;28;20040;-67
2022/09/06 11:32:02;;;;;;;9.23;7.38;;;27.00;94.40;;;;;;5076932;28;20825;-66
2022/09/06 11:34:35;;;;;;;10.35;7.60;;;27.10;92.20;;;;;;5073356;28;20036;-66
2022/09/06 11:37:06;;;;;;;7.95;7.05;;;27.20;92.80;;;;;;5073846;28;20059;-66
2022/09/06 11:39:31;;;;;;;;;;;27.20;92.70;;;;;;5083357;28;20116;-66
2022/09/06 11:41:58;;;;;;;8.02;6.90;;;27.30;92.10;;;;;;5072281;28;20003;-66
2022/09/06 11:44:48;;;;;;;7.60;6.80;;;27.40;93.10;;;;;;5072482;28;20032;-66
2022/09/06 11:47:42;;;;;;;8.60;7.78;;;27.40;92.00;;;;;;5076797;28;20064;-66
2022/09/06 11:50:19;;;;;;;12.13;7.63;;;27.30;91.40;;;;;;5072844;28;20045;-66
2022/09/06 11:52:54;;;;;;;7.90;7.10;;;27.20;92.30;;;;;;5053357;28;20474;-66
2022/09/06 11:55:30;;;;;;;8.43;7.45;;;27.10;91.60;;;;;;5072324;28;20110;-66
2022/09/06 11:57:58;;;;;;;8.82;6.65;;;27.00;91.90;;;;;;5072699;28;20048;-66
2022/09/06 12:00:25;;;;;;;6.22;5.63;;;27.20;92.10;;;;;;5072702;28;20037;-66
2022/09/06 12:02:52;;;;;;;6.88;5.95;;;27.30;91.70;;;;;;5075324;28;20047;-66
2022/09/06 12:05:24;;;;;;;7.22;5.32;;;27.50;92.10;;;;;;5072593;28;20037;-66
2022/09/06 12:08:23;;;;;;;6.20;5.18;;;27.70;91.30;;;;;;5072635;28;20446;-67
2022/09/06 12:10:56;;;;;;;9.88;5.68;;;27.80;90.50;;;;;;5061103;28;20482;-67
2022/09/06 12:13:35;;;;;;;6.88;5.93;;;28.00;90.30;;;;;;5131977;22;20084;-66
2022/09/06 12:16:01;;;;;;;7.03;5.35;;;28.10;90.10;;;;;;5092404;28;20047;-66
2022/09/06 12:18:41;;;;;;;7.22;5.30;;;28.20;90.30;;;;;;5091126;28;20028;-66
2022/09/06 12:21:28;;;;;;;8.13;5.50;;;28.20;88.60;;;;;;5104773;28;20055;-66
2022/09/06 12:23:53;;;;;;;12.27;6.10;;;28.10;89.40;;;;;;5083610;28;20268;-66
2022/09/06 12:26:49;;;;;;;8.32;5.88;;;28.00;90.10;;;;;;5089040;28;20020;-66
2022/09/06 12:29:16;;;;;;;6.55;5.80;;;28.10;87.70;;;;;;5083454;28;20041;-66
2022/09/06 12:31:51;;;;;;;5.80;4.70;;;28.30;89.80;;;;;;5084584;28;20048;-66
2022/09/06 12:34:21;;;;;;;5.90;4.50;;;28.60;87.90;;;;;;5085346;28;20039;-66
2022/09/06 12:36:57;;;;;;;8.02;5.90;;;28.70;86.30;;;;;;5072112;28;20379;-66
2022/09/06 12:39:23;;;;;;;6.70;5.80;;;28.70;85.50;;;;;;5084410;28;20032;-66
2022/09/06 12:41:54;;;;;;;36.00;6.65;;;28.80;86.50;;;;;;5070908;28;20064;-66
2022/09/06 12:44:30;;;;;;;10.07;5.45;;;28.90;84.20;;;;;;5055790;28;20048;-66
2022/09/06 12:47:01;;;;;;;8.50;5.00;;;28.90;83.90;;;;;;5083921;28;20068;-66
2022/09/06 12:49:27;;;;;;;8.23;4.70;;;28.90;83.80;;;;;;5087839;28;20047;-66
2022/09/06 12:52:06;;;;;;;5.65;4.72;;;29.00;84.30;;;;;;5091064;28;20036;-66